Time;durP1;ratioP1;P1;durP2;ratioP2;P2;SDS_P1;SDS_P2;PMS_P1;PMS_P2;Temp;Humidity;BMP_temperature;BMP_pressure;BME280_temperature;BME280_humidity;BME280_pressure;Samples;Min_cycle;Max_cycle;Signal;HPM_P1;HPM_P2
2022/04/22 00:01:13;;;;;;;2.83;2.53;;;13.00;98.00;;;;;;7386301;19;20135;-79
2022/04/22 00:03:39;;;;;;;3.00;2.45;;;13.10;98.00;;;;;;7390702;19;20145;-77
2022/04/22 00:06:06;;;;;;;3.43;2.30;;;12.90;98.10;;;;;;7388016;19;20126;-77
2022/04/22 00:08:32;;;;;;;2.97;2.20;;;12.90;98.50;;;;;;7389812;19;20486;-77
2022/04/22 00:13:43;;;;;;;3.63;2.57;;;12.90;98.50;;;;;;7405458;19;20134;-78
2022/04/22 00:16:09;;;;;;;3.77;2.80;;;12.80;98.60;;;;;;7392902;19;20126;-77
2022/04/22 00:18:35;;;;;;;3.83;2.23;;;12.70;99.00;;;;;;7387872;19;20146;-77
2022/04/22 00:21:01;;;;;;;4.77;2.40;;;12.60;99.10;;;;;;7389596;19;20158;-78
2022/04/22 00:23:28;;;;;;;3.93;2.60;;;12.60;99.30;;;;;;7387322;19;20123;-78
2022/04/22 00:25:55;;;;;;;3.63;2.60;;;12.60;99.40;;;;;;7386771;19;20146;-79
2022/04/22 00:28:21;;;;;;;2.57;2.30;;;12.60;99.50;;;;;;7386103;19;20159;-78
2022/04/22 00:30:47;;;;;;;3.40;2.47;;;12.60;99.40;;;;;;7386522;19;20161;-78
2022/04/22 00:33:14;;;;;;;3.90;2.50;;;12.70;99.50;;;;;;7392628;19;20153;-78
2022/04/22 00:35:40;;;;;;;2.60;2.10;;;12.60;99.60;;;;;;7401769;19;20586;-77
2022/04/22 00:38:07;;;;;;;3.40;2.60;;;12.30;99.90;;;;;;7393802;19;20143;-78
2022/04/22 00:40:32;;;;;;;2.57;2.30;;;12.20;99.90;;;;;;7387999;19;20123;-78
2022/04/22 00:42:59;;;;;;;5.00;2.33;;;12.30;99.90;;;;;;7385907;19;20222;-76
2022/04/22 00:45:25;;;;;;;6.13;3.30;;;12.40;99.90;;;;;;7387873;19;20138;-76
2022/04/22 00:47:50;;;;;;;3.43;2.40;;;12.40;99.90;;;;;;7387018;19;20266;-77
2022/04/22 00:50:17;;;;;;;4.03;2.90;;;12.40;99.90;;;;;;7387837;19;20135;-77
2022/04/22 00:52:43;;;;;;;3.07;2.63;;;12.20;99.90;;;;;;7385848;19;20126;-78
2022/04/22 00:55:09;;;;;;;3.23;2.53;;;12.30;99.90;;;;;;7393355;19;20134;-76
2022/04/22 00:57:35;;;;;;;3.27;2.80;;;12.30;99.90;;;;;;7390897;19;20470;-77
2022/04/22 01:00:03;;;;;;;3.27;2.60;;;12.30;99.90;;;;;;7386804;19;20127;-77
2022/04/22 01:02:29;;;;;;;3.60;2.63;;;12.10;99.90;;;;;;7385577;19;20131;-79
2022/04/22 01:10:25;;;;;;;3.90;3.10;;;12.00;99.90;;;;;;7392651;19;20130;-78
2022/04/22 01:12:51;;;;;;;3.73;2.70;;;12.00;99.90;;;;;;7394727;19;20130;-78
2022/04/22 01:15:17;;;;;;;4.10;3.23;;;12.00;99.90;;;;;;7394505;19;20164;-77
2022/04/22 01:17:44;;;;;;;3.77;2.80;;;12.10;99.90;;;;;;7405303;19;20115;-77
2022/04/22 01:20:10;;;;;;;3.97;2.87;;;12.10;99.90;;;;;;7396646;19;20137;-79
2022/04/22 01:22:36;;;;;;;5.97;3.30;;;12.10;99.90;;;;;;7398731;19;20126;-77
2022/04/22 01:25:03;;;;;;;4.93;3.60;;;12.00;99.90;;;;;;7392327;19;20459;-77
2022/04/22 01:27:30;;;;;;;3.73;2.87;;;12.00;99.90;;;;;;7391484;19;20163;-77
2022/04/22 01:29:57;;;;;;;3.83;2.93;;;11.90;99.90;;;;;;7389538;19;20135;-78
2022/04/22 01:32:25;;;;;;;4.67;2.90;;;11.90;99.90;;;;;;7392203;19;20146;-76
2022/04/22 01:34:51;;;;;;;5.27;2.90;;;11.90;99.90;;;;;;7393987;19;20137;-78
2022/04/22 01:37:17;;;;;;;4.67;3.30;;;11.90;99.90;;;;;;7402326;19;20127;-77
2022/04/22 01:39:42;;;;;;;3.43;2.80;;;12.00;99.90;;;;;;7391434;19;20154;-76
2022/04/22 01:42:09;;;;;;;4.03;3.27;;;12.00;99.90;;;;;;7393165;19;20158;-77
2022/04/22 01:44:37;;;;;;;4.33;3.10;;;11.90;99.90;;;;;;7391381;19;20150;-77
2022/04/22 01:47:04;;;;;;;4.83;3.33;;;11.80;99.90;;;;;;7390643;19;20142;-78
2022/04/22 01:49:30;;;;;;;4.20;2.97;;;11.90;99.90;;;;;;7393584;19;20900;-78
2022/04/22 01:51:56;;;;;;;4.63;3.30;;;11.80;99.90;;;;;;7393541;19;20138;-78
2022/04/22 01:54:22;;;;;;;4.30;3.23;;;11.90;99.90;;;;;;7391504;19;20533;-77
2022/04/22 01:56:47;;;;;;;3.30;3.00;;;11.90;99.90;;;;;;7397313;19;20147;-77
2022/04/22 01:59:13;;;;;;;4.73;3.70;;;11.90;99.90;;;;;;7393159;19;20137;-77
2022/04/22 02:01:39;;;;;;;3.63;3.13;;;11.90;99.90;;;;;;7392557;19;20122;-77
2022/04/22 02:04:05;;;;;;;4.63;3.73;;;11.90;99.90;;;;;;7393172;19;20130;-76
2022/04/22 02:06:32;;;;;;;4.87;3.50;;;11.90;99.90;;;;;;7390256;19;20177;-77
2022/04/22 02:08:58;;;;;;;4.87;3.73;;;11.80;99.90;;;;;;7392304;19;20135;-77
2022/04/22 02:11:23;;;;;;;6.10;4.23;;;11.70;99.90;;;;;;7392716;19;20889;-77
2022/04/22 02:13:49;;;;;;;6.27;4.20;;;11.50;99.90;;;;;;7388727;19;20134;-77
2022/04/22 02:16:15;;;;;;;5.33;4.03;;;11.50;99.90;;;;;;7393523;19;20142;-78
2022/04/22 02:18:42;;;;;;;6.20;4.73;;;11.50;99.90;;;;;;7395219;19;20131;-77
2022/04/22 02:21:10;;;;;;;5.33;4.17;;;11.50;99.90;;;;;;7389267;19;20175;-77
2022/04/22 02:23:36;;;;;;;4.60;4.00;;;11.40;99.90;;;;;;7394211;19;20142;-77
2022/04/22 02:26:03;;;;;;;6.47;4.67;;;11.50;99.90;;;;;;7388970;19;20488;-76
2022/04/22 02:28:32;;;;;;;5.90;4.03;;;11.50;99.90;;;;;;7393053;19;20179;-76
2022/04/22 02:31:01;;;;;;;5.47;4.40;;;11.50;99.90;;;;;;7390647;19;20151;-77
2022/04/22 02:33:27;;;;;;;6.60;4.57;;;11.50;99.90;;;;;;7389918;19;20134;-77
2022/04/22 02:35:53;;;;;;;5.93;4.57;;;11.40;99.90;;;;;;7392951;19;20166;-77
2022/04/22 02:38:19;;;;;;;5.73;4.10;;;11.50;99.90;;;;;;7392778;19;20286;-76
2022/04/22 02:46:13;;;;;;;5.83;4.27;;;11.40;99.90;;;;;;7389469;19;20142;-76
2022/04/22 02:48:38;;;;;;;6.17;4.57;;;11.40;99.90;;;;;;7388720;19;20190;-77
2022/04/22 02:51:05;;;;;;;7.10;4.97;;;11.40;99.90;;;;;;7388180;19;20122;-77
2022/04/22 02:53:30;;;;;;;6.50;4.90;;;11.30;99.90;;;;;;7389618;19;20169;-79
2022/04/22 02:55:57;;;;;;;7.70;5.23;;;11.30;99.90;;;;;;7388736;19;20131;-76
2022/04/22 02:58:23;;;;;;;7.67;4.87;;;11.20;99.90;;;;;;7388366;19;20131;-77
2022/04/22 03:00:48;;;;;;;7.20;5.40;;;11.20;99.90;;;;;;7397833;19;20134;-76
2022/04/22 03:03:14;;;;;;;6.47;4.80;;;11.20;99.90;;;;;;7395406;19;20154;-78
2022/04/22 03:05:40;;;;;;;7.40;5.60;;;11.10;99.90;;;;;;7392484;19;20134;-77
2022/04/22 03:08:06;;;;;;;7.00;5.07;;;11.10;99.90;;;;;;7389526;19;20614;-79
2022/04/22 03:10:33;;;;;;;6.53;4.90;;;11.10;99.90;;;;;;7389512;19;20130;-78
2022/04/22 03:12:59;;;;;;;6.80;4.83;;;11.20;99.90;;;;;;7389052;19;20218;-76
2022/04/22 03:15:25;;;;;;;7.30;5.07;;;10.90;99.90;;;;;;7388904;19;20131;-79
2022/04/22 03:17:51;;;;;;;7.73;4.83;;;10.90;99.90;;;;;;7397085;19;20165;-78
2022/04/22 03:20:17;;;;;;;8.23;5.53;;;10.80;99.90;;;;;;7405010;19;20596;-78
2022/04/22 03:22:44;;;;;;;7.20;4.77;;;10.90;99.90;;;;;;7389715;19;20190;-76
2022/04/22 03:25:10;;;;;;;7.73;5.37;;;10.90;99.90;;;;;;7389029;19;20123;-77
2022/04/22 03:27:36;;;;;;;8.23;5.70;;;11.00;99.90;;;;;;7388049;19;20134;-77
2022/04/22 03:30:03;;;;;;;10.13;5.53;;;10.90;99.90;;;;;;7384322;19;20594;-79
2022/04/22 03:32:30;;;;;;;8.47;5.37;;;11.00;99.90;;;;;;7388835;19;20621;-80
2022/04/22 03:34:56;;;;;;;8.87;5.87;;;11.20;99.90;;;;;;7390290;19;20785;-79
2022/04/22 03:37:21;;;;;;;6.50;5.40;;;11.10;99.90;;;;;;7386247;19;20164;-77
2022/04/22 03:39:47;;;;;;;8.00;5.67;;;11.00;99.90;;;;;;7388319;19;20127;-79
2022/04/22 03:42:13;;;;;;;7.67;5.73;;;11.00;99.90;;;;;;7394555;19;20126;-79
2022/04/22 03:44:39;;;;;;;9.53;6.60;;;11.00;99.90;;;;;;7388821;19;20127;-76
2022/04/22 03:47:07;;;;;;;8.20;5.93;;;11.10;99.90;;;;;;7386404;19;20607;-76
2022/04/22 03:49:33;;;;;;;10.17;6.40;;;11.10;99.90;;;;;;7387498;19;20135;-77
2022/04/22 03:51:59;;;;;;;10.07;6.33;;;11.10;99.90;;;;;;7386812;19;20142;-76
2022/04/22 03:54:25;;;;;;;8.97;5.87;;;11.00;99.90;;;;;;7387621;19;20377;-77
2022/04/22 03:59:36;;;;;;;10.33;6.87;;;11.10;99.90;;;;;;7386863;19;20160;-77
2022/04/22 04:02:03;;;;;;;9.57;6.63;;;11.10;99.90;;;;;;7389221;19;20590;-78
2022/04/22 04:04:29;;;;;;;9.90;7.13;;;11.00;99.90;;;;;;7393253;19;20158;-76
2022/04/22 04:06:55;;;;;;;9.67;6.70;;;10.90;99.90;;;;;;7385114;19;20135;-75
2022/04/22 04:17:36;;;;;;;9.77;7.00;;;10.80;99.90;;;;;;7385263;19;20141;-79
2022/04/22 04:25:32;;;;;;;9.97;7.13;;;10.80;99.90;;;;;;7395075;19;20130;-79
2022/04/22 04:27:57;;;;;;;11.90;7.30;;;10.60;99.90;;;;;;7386898;19;20143;-77
2022/04/22 04:30:23;;;;;;;8.90;7.37;;;10.60;99.90;;;;;;7384502;19;20138;-77
2022/04/22 04:32:49;;;;;;;10.83;7.80;;;10.60;99.90;;;;;;7385758;19;20130;-76
2022/04/22 04:35:15;;;;;;;11.63;7.80;;;10.60;99.90;;;;;;7388640;19;20594;-78
2022/04/22 04:37:42;;;;;;;11.50;8.17;;;10.60;99.90;;;;;;7384218;19;20134;-77
2022/04/22 04:40:09;;;;;;;10.83;7.60;;;10.50;99.90;;;;;;7383283;19;20134;-77
2022/04/22 04:42:36;;;;;;;11.43;7.87;;;10.50;99.90;;;;;;7388424;19;20634;-78
2022/04/22 04:45:03;;;;;;;12.27;8.37;;;10.60;99.90;;;;;;7394442;19;20138;-77
2022/04/22 04:47:31;;;;;;;10.10;8.00;;;10.80;99.90;;;;;;7384659;19;20177;-76
2022/04/22 04:49:56;;;;;;;11.73;7.80;;;10.80;99.90;;;;;;7383843;19;20505;-76
2022/04/22 04:52:22;;;;;;;11.53;7.73;;;10.80;99.90;;;;;;7386177;19;20202;-78
2022/04/22 04:54:50;;;;;;;12.57;7.93;;;10.80;99.90;;;;;;7384612;19;20134;-77
2022/04/22 04:57:15;;;;;;;9.93;7.33;;;10.90;99.90;;;;;;7383506;19;20142;-77
2022/04/22 04:59:42;;;;;;;10.60;7.57;;;10.80;99.90;;;;;;7383695;19;20598;-79
2022/04/22 05:02:07;;;;;;;10.93;7.83;;;10.80;99.90;;;;;;7389119;19;20142;-78
2022/04/22 05:04:33;;;;;;;12.27;7.60;;;10.60;99.90;;;;;;7393408;19;20134;-77
2022/04/22 05:06:59;;;;;;;13.63;8.80;;;10.70;99.90;;;;;;7385433;19;20877;-78
2022/04/22 05:09:25;;;;;;;14.73;9.23;;;10.80;99.90;;;;;;7388664;19;20150;-79
2022/04/22 05:11:50;;;;;;;13.37;8.07;;;10.90;99.90;;;;;;7389653;19;20681;-79
2022/04/22 05:14:16;;;;;;;12.90;7.73;;;10.80;99.90;;;;;;7389602;19;20999;-76
2022/04/22 05:16:43;;;;;;;11.73;8.40;;;10.80;99.90;;;;;;7387784;19;20146;-76
2022/04/22 05:19:09;;;;;;;12.03;7.87;;;11.00;99.90;;;;;;7388705;19;20142;-77
2022/04/22 05:21:35;;;;;;;10.87;7.67;;;11.00;99.90;;;;;;7386605;19;20177;-79
2022/04/22 05:24:00;;;;;;;12.17;8.60;;;10.90;99.90;;;;;;7393079;19;20166;-76
2022/04/22 05:26:26;;;;;;;13.37;8.90;;;10.90;99.90;;;;;;7385177;19;20150;-79
2022/04/22 05:28:52;;;;;;;11.53;8.20;;;10.90;99.90;;;;;;7382260;19;20146;-77
2022/04/22 05:34:02;;;;;;;12.77;8.87;;;10.80;99.90;;;;;;7384392;19;20139;-80
2022/04/22 05:36:27;;;;;;;12.00;9.23;;;10.80;99.90;;;;;;7385443;19;20159;-78
2022/04/22 05:38:53;;;;;;;13.00;9.00;;;10.70;99.90;;;;;;7387754;19;20135;-79
2022/04/22 05:41:19;;;;;;;13.83;8.97;;;10.80;99.90;;;;;;7384358;19;20127;-78
2022/04/22 05:43:45;;;;;;;13.93;9.13;;;10.80;99.90;;;;;;7388157;19;20380;-79
2022/04/22 05:46:11;;;;;;;14.90;9.63;;;10.80;99.90;;;;;;7399331;19;20138;-78
2022/04/22 05:48:39;;;;;;;13.27;8.93;;;10.80;99.90;;;;;;7380332;19;20569;-78
2022/04/22 05:51:05;;;;;;;15.17;9.60;;;11.00;99.90;;;;;;7384867;19;20154;-79
2022/04/22 05:53:30;;;;;;;15.83;10.30;;;10.90;99.90;;;;;;7391665;19;20141;-77
2022/04/22 05:55:57;;;;;;;13.17;9.00;;;11.00;99.90;;;;;;7392354;19;20138;-79
2022/04/22 05:58:23;;;;;;;14.00;9.40;;;10.90;99.90;;;;;;7390838;19;20163;-78
2022/04/22 06:00:49;;;;;;;14.70;9.07;;;10.90;99.90;;;;;;7387893;19;20142;-79
2022/04/22 06:03:15;;;;;;;14.90;9.47;;;10.90;99.90;;;;;;7390723;19;20130;-79
2022/04/22 06:05:41;;;;;;;13.40;10.10;;;11.00;99.90;;;;;;7399821;19;20541;-79
2022/04/22 06:10:52;;;;;;;14.03;9.27;;;11.10;99.90;;;;;;7391629;19;20242;-79
2022/04/22 06:13:18;;;;;;;14.30;9.53;;;11.20;99.90;;;;;;7389690;19;20135;-77
2022/04/22 06:15:45;;;;;;;15.50;10.23;;;11.20;99.90;;;;;;7395355;19;20141;-79
2022/04/22 06:18:10;;;;;;;16.27;10.17;;;11.10;99.90;;;;;;7390259;19;20661;-78
2022/04/22 06:20:36;;;;;;;13.10;10.20;;;11.10;99.90;;;;;;7387599;19;20198;-79
2022/04/22 06:23:02;;;;;;;17.17;10.57;;;11.20;99.90;;;;;;7389628;19;20143;-80
2022/04/22 06:25:29;;;;;;;13.53;9.57;;;11.10;99.90;;;;;;7390446;19;20141;-78
2022/04/22 06:27:55;;;;;;;15.37;10.40;;;11.10;99.90;;;;;;7392814;19;20164;-78
2022/04/22 06:30:23;;;;;;;15.77;10.57;;;11.20;99.90;;;;;;7395250;19;20135;-79
2022/04/22 06:32:52;;;;;;;15.17;10.67;;;11.30;99.90;;;;;;7389063;19;20126;-79
2022/04/22 06:35:18;;;;;;;17.10;10.77;;;11.30;99.90;;;;;;7393117;19;20527;-78
2022/04/22 06:37:46;;;;;;;15.43;10.37;;;11.20;99.90;;;;;;7388304;19;20139;-78
2022/04/22 06:45:46;;;;;;;15.13;11.10;;;11.40;99.90;;;;;;7392606;19;20245;-78
2022/04/22 06:48:14;;;;;;;17.27;11.33;;;11.50;99.90;;;;;;7395912;19;20135;-79
2022/04/22 06:50:41;;;;;;;14.60;9.77;;;11.70;99.90;;;;;;7398728;19;20185;-77
2022/04/22 06:53:07;;;;;;;16.40;9.93;;;11.80;99.90;;;;;;7397544;19;20146;-77
2022/04/22 06:55:34;;;;;;;13.97;10.33;;;12.00;99.90;;;;;;7391345;19;20143;-78
2022/04/22 06:58:01;;;;;;;15.23;10.73;;;12.20;99.90;;;;;;7388535;19;20155;-76
2022/04/22 07:00:28;;;;;;;14.73;10.07;;;12.40;99.90;;;;;;7390190;19;20134;-77
2022/04/22 07:02:57;;;;;;;14.00;10.40;;;12.80;99.90;;;;;;7399082;19;20138;-78
2022/04/22 07:05:24;;;;;;;15.20;10.00;;;13.20;99.90;;;;;;7395120;19;20180;-79
2022/04/22 07:07:50;;;;;;;17.53;10.97;;;13.50;99.90;;;;;;7389852;19;20146;-78
2022/04/22 07:10:17;;;;;;;17.20;10.63;;;13.60;99.90;;;;;;7390959;19;20158;-79
2022/04/22 07:12:43;;;;;;;17.97;10.60;;;13.70;99.90;;;;;;7392709;19;20606;-79
2022/04/22 07:15:10;;;;;;;14.67;10.77;;;13.90;99.90;;;;;;7394803;19;20158;-78
2022/04/22 07:17:40;;;;;;;14.20;10.23;;;14.20;99.90;;;;;;7390516;19;20516;-78
2022/04/22 07:20:10;;;;;;;14.27;10.17;;;14.20;99.90;;;;;;7391058;19;20235;-80
2022/04/22 07:22:37;;;;;;;16.57;10.83;;;14.10;99.90;;;;;;7390245;19;20141;-79
2022/04/22 07:25:08;;;;;;;16.13;11.50;;;14.00;99.90;;;;;;7392791;19;20127;-78
2022/04/22 07:27:39;;;;;;;15.03;10.63;;;14.10;99.90;;;;;;7390791;19;20135;-78
2022/04/22 07:30:08;;;;;;;14.00;10.63;;;14.10;99.90;;;;;;7388219;19;20155;-79
2022/04/22 07:32:37;;;;;;;14.23;10.20;;;14.20;99.90;;;;;;7387714;19;20127;-78
2022/04/22 07:35:12;;;;;;;14.23;9.70;;;14.40;99.90;;;;;;7397805;19;20135;-79
2022/04/22 07:37:42;;;;;;;13.97;9.97;;;14.60;99.90;;;;;;7392479;19;20138;-77
2022/04/22 07:40:09;;;;;;;16.37;10.17;;;14.80;99.90;;;;;;7386179;19;20134;-77
2022/04/22 07:42:36;;;;;;;15.43;10.57;;;15.00;99.90;;;;;;7386956;19;20576;-80
2022/04/22 07:47:49;;;;;;;14.63;10.57;;;15.10;99.90;;;;;;7388398;19;20238;-78
2022/04/22 07:50:17;;;;;;;13.83;10.23;;;14.90;99.90;;;;;;7393527;19;20144;-78
2022/04/22 07:52:47;;;;;;;14.30;9.88;;;15.10;99.90;;;;;;7388591;19;20151;-78
2022/04/22 07:55:14;;;;;;;13.13;10.40;;;15.10;99.90;;;;;;7389960;19;20135;-77
2022/04/22 07:57:41;;;;;;;16.03;10.90;;;15.00;99.90;;;;;;7386309;19;20134;-76
2022/04/22 08:00:11;;;;;;;12.32;9.50;;;15.10;99.90;;;;;;7390629;19;20174;-80
2022/04/22 08:02:40;;;;;;;12.70;10.07;;;15.50;99.90;;;;;;7389655;19;20135;-79
2022/04/22 08:05:13;;;;;;;13.23;9.95;;;15.60;99.90;;;;;;7389159;19;20143;-78
2022/04/22 08:07:39;;;;;;;13.70;10.20;;;15.50;99.90;;;;;;7387715;19;20142;-78
2022/04/22 08:10:06;;;;;;;14.38;10.32;;;15.60;99.90;;;;;;7388551;19;20156;-78
2022/04/22 08:12:33;;;;;;;13.07;10.37;;;15.30;99.90;;;;;;7396356;19;20171;-79
2022/04/22 08:15:01;;;;;;;12.40;10.00;;;15.00;99.90;;;;;;7389182;19;20154;-79
2022/04/22 08:17:32;;;;;;;12.90;10.13;;;15.20;99.90;;;;;;7387498;19;20142;-78
2022/04/22 08:19:57;;;;;;;12.63;9.82;;;15.20;99.90;;;;;;7387009;19;20134;-78
2022/04/22 08:22:23;;;;;;;12.35;9.50;;;15.20;99.90;;;;;;7391149;19;20468;-78
2022/04/22 08:24:50;;;;;;;10.98;9.32;;;15.50;99.90;;;;;;7387872;19;20619;-78
2022/04/22 08:27:16;;;;;;;14.05;10.45;;;15.40;99.90;;;;;;7386521;19;20172;-78
2022/04/22 08:29:44;;;;;;;13.73;10.30;;;15.20;99.90;;;;;;7386677;19;20235;-78
2022/04/22 08:32:10;;;;;;;15.18;10.07;;;15.10;99.90;;;;;;7391909;19;20138;-78
2022/04/22 08:34:36;;;;;;;14.30;10.00;;;14.80;99.90;;;;;;7391254;19;20778;-79
2022/04/22 08:37:02;;;;;;;13.80;10.23;;;14.90;99.90;;;;;;7385322;19;20562;-78
2022/04/22 08:39:28;;;;;;;12.85;9.55;;;15.00;99.90;;;;;;7385229;19;20151;-77
2022/04/22 08:41:55;;;;;;;13.63;9.53;;;15.20;99.90;;;;;;7388701;19;20126;-76
2022/04/22 08:44:22;;;;;;;12.80;9.53;;;15.10;99.90;;;;;;7388363;19;20479;-78
2022/04/22 08:52:18;;;;;;;12.57;9.43;;;15.10;99.90;;;;;;7387024;19;20141;-79
2022/04/22 08:54:45;;;;;;;12.30;9.90;;;15.10;99.90;;;;;;7386105;19;20154;-79
2022/04/22 08:57:11;;;;;;;14.47;10.33;;;15.00;99.90;;;;;;7390961;19;20130;-76
2022/04/22 08:59:37;;;;;;;12.03;9.00;;;14.90;99.90;;;;;;7386659;19;20500;-78
2022/04/22 09:02:03;;;;;;;12.33;9.30;;;15.00;99.90;;;;;;7387470;19;20146;-80
2022/04/22 09:04:30;;;;;;;14.23;9.60;;;15.00;99.90;;;;;;7387960;19;20900;-79
2022/04/22 09:06:56;;;;;;;13.90;9.23;;;15.00;99.90;;;;;;7384255;19;20138;-78
2022/04/22 09:09:24;;;;;;;12.15;8.52;;;15.10;99.90;;;;;;7390942;19;20162;-78
2022/04/22 09:11:51;;;;;;;10.98;8.57;;;15.10;99.90;;;;;;7385051;19;20157;-79
2022/04/22 09:14:19;;;;;;;13.20;10.05;;;15.10;99.90;;;;;;7387686;19;20470;-79
2022/04/22 09:16:45;;;;;;;11.60;8.60;;;14.90;99.90;;;;;;7387571;19;20137;-77
2022/04/22 09:19:11;;;;;;;12.68;8.43;;;14.80;99.90;;;;;;7384806;19;20123;-77
2022/04/22 09:21:38;;;;;;;12.13;8.97;;;14.90;99.90;;;;;;7383557;19;20138;-78
2022/04/22 09:24:14;;;;;;;15.90;8.52;;;15.00;99.90;;;;;;7393237;19;20158;-78
2022/04/22 09:26:40;;;;;;;11.48;9.15;;;15.20;99.90;;;;;;7385605;19;20150;-79
2022/04/22 09:29:10;;;;;;;10.77;8.40;;;15.10;99.90;;;;;;7390671;19;20520;-77
2022/04/22 09:31:46;;;;;;;11.63;8.57;;;15.20;99.90;;;;;;7393352;19;20135;-77
2022/04/22 09:34:12;;;;;;;13.27;9.32;;;15.20;99.90;;;;;;7391571;19;20138;-78
2022/04/22 09:45:08;;;;;;;12.20;8.37;;;15.60;99.90;;;;;;7398360;19;20194;-77
2022/04/22 09:47:36;;;;;;;10.83;8.87;;;15.60;99.90;;;;;;7401811;19;20134;-78
2022/04/22 09:50:10;;;;;;;11.57;8.20;;;15.70;99.90;;;;;;7391428;19;20161;-79
2022/04/22 09:52:39;;;;;;;10.88;8.63;;;15.60;99.90;;;;;;7399464;19;20130;-78
2022/04/22 09:55:15;;;;;;;12.18;8.57;;;15.60;99.90;;;;;;7392443;19;20604;-78
2022/04/22 09:57:53;;;;;;;11.17;8.17;;;15.70;99.90;;;;;;7392092;19;20134;-78
2022/04/22 10:00:38;;;;;;;10.48;8.07;;;15.60;99.90;;;;;;7389987;19;20139;-79
2022/04/22 10:03:07;;;;;;;10.90;8.45;;;15.60;99.90;;;;;;7395184;19;20503;-77
2022/04/22 10:05:35;;;;;;;10.57;8.00;;;15.60;99.90;;;;;;7391110;19;20175;-78
2022/04/22 10:08:03;;;;;;;10.95;7.75;;;15.60;99.90;;;;;;7400571;19;20163;-77
2022/04/22 10:10:38;;;;;;;9.70;8.20;;;15.60;99.90;;;;;;7393719;19;20131;-78
2022/04/22 10:13:05;;;;;;;8.40;7.28;;;15.70;99.90;;;;;;7391674;19;20589;-79
2022/04/22 10:15:39;;;;;;;10.13;7.63;;;15.70;99.90;;;;;;7394236;19;20138;-77
2022/04/22 10:18:07;;;;;;;10.77;8.00;;;15.70;99.90;;;;;;7391987;19;20610;-79
2022/04/22 10:20:33;;;;;;;10.82;8.55;;;15.90;99.90;;;;;;7388793;19;20157;-79
2022/04/22 10:22:59;;;;;;;10.38;8.13;;;16.00;99.70;;;;;;7392180;19;20202;-80
2022/04/22 10:25:29;;;;;;;10.15;8.20;;;16.10;99.80;;;;;;7392531;19;20690;-80
2022/04/22 10:27:57;;;;;;;8.98;7.05;;;16.20;99.50;;;;;;7390625;19;20151;-78
2022/04/22 10:30:25;;;;;;;11.88;8.75;;;16.30;99.40;;;;;;7394642;19;20127;-80
2022/04/22 10:32:51;;;;;;;9.32;7.50;;;16.60;99.10;;;;;;7393626;19;20134;-81
2022/04/22 10:35:23;;;;;;;9.63;7.50;;;16.90;98.60;;;;;;7393326;19;20178;-77
2022/04/22 10:37:50;;;;;;;9.18;7.72;;;17.00;98.50;;;;;;7389942;19;20134;-80
2022/04/22 10:40:23;;;;;;;10.02;7.88;;;16.90;98.20;;;;;;7389107;19;20511;-80
2022/04/22 10:42:55;;;;;;;8.98;6.70;;;16.90;98.30;;;;;;7388714;19;20154;-79
2022/04/22 10:48:25;;;;;;;9.70;7.60;;;16.80;98.20;;;;;;7392916;19;20618;-78
2022/04/22 10:51:00;;;;;;;8.38;6.90;;;16.90;98.20;;;;;;7391284;19;20126;-76
2022/04/22 10:53:33;;;;;;;10.63;6.60;;;16.80;98.00;;;;;;7393721;19;20202;-75
2022/04/22 10:56:28;;;;;;;9.40;7.03;;;16.70;98.30;;;;;;7392633;19;20174;-77
2022/04/22 10:59:15;;;;;;;8.27;6.60;;;16.70;98.40;;;;;;7388972;19;20255;-76
2022/04/22 11:01:43;;;;;;;8.75;7.10;;;16.90;98.40;;;;;;7385976;19;20135;-79
2022/04/22 11:04:19;;;;;;;9.07;6.82;;;17.00;98.70;;;;;;7390247;19;20148;-76
2022/04/22 11:06:45;;;;;;;9.82;7.20;;;17.10;98.20;;;;;;7391666;19;20143;-76
2022/04/22 11:09:30;;;;;;;10.68;7.32;;;17.20;98.10;;;;;;7397286;19;20246;-75
2022/04/22 11:11:57;;;;;;;10.23;7.47;;;17.20;97.90;;;;;;7388360;19;20155;-76
2022/04/22 11:14:28;;;;;;;7.80;6.90;;;17.20;98.10;;;;;;7394358;19;20555;-78
2022/04/22 11:17:16;;;;;;;11.23;8.05;;;17.30;98.00;;;;;;7388172;19;20131;-78
2022/04/22 11:19:59;;;;;;;9.10;7.68;;;17.20;97.80;;;;;;7387793;19;20150;-77
2022/04/22 11:22:56;;;;;;;9.25;7.70;;;17.30;97.90;;;;;;7388121;19;20145;-79
2022/04/22 11:25:25;;;;;;;7.22;5.95;;;17.30;97.80;;;;;;7389544;19;20206;-79
2022/04/22 11:27:55;;;;;;;10.25;6.65;;;17.40;97.70;;;;;;7389449;19;20628;-77
2022/04/22 11:30:22;;;;;;;10.00;7.35;;;17.50;97.30;;;;;;7391322;19;20150;-76
2022/04/22 11:32:52;;;;;;;8.50;6.80;;;17.60;97.00;;;;;;7388009;19;20231;-77
2022/04/22 11:35:22;;;;;;;8.85;7.18;;;17.60;97.20;;;;;;7395875;19;20246;-78
2022/04/22 11:38:05;;;;;;;8.63;7.03;;;17.60;97.30;;;;;;7386282;19;20531;-77
2022/04/22 11:40:37;;;;;;;9.60;7.38;;;17.60;97.60;;;;;;7386792;19;20146;-77
2022/04/22 11:43:16;;;;;;;10.05;8.10;;;17.50;97.60;;;;;;7386850;19;20151;-76
2022/04/22 11:45:44;;;;;;;7.95;7.03;;;17.40;97.50;;;;;;7388593;19;20134;-78
2022/04/22 11:48:11;;;;;;;9.48;7.00;;;17.30;97.60;;;;;;7386029;19;20130;-79
2022/04/22 11:50:40;;;;;;;6.70;5.72;;;17.50;97.40;;;;;;7387715;19;20126;-78
2022/04/22 11:53:40;;;;;;;6.93;6.22;;;17.70;97.10;;;;;;7387730;19;20153;-79
2022/04/22 11:56:06;;;;;;;8.68;7.15;;;17.70;96.80;;;;;;7392544;19;20126;-75
2022/04/22 11:58:32;;;;;;;7.97;6.82;;;17.70;96.30;;;;;;7388630;19;20209;-75
2022/04/22 12:06:28;;;;;;;9.18;6.82;;;17.70;96.50;;;;;;7387544;19;20487;-78
2022/04/22 12:08:56;;;;;;;7.63;5.97;;;17.80;96.50;;;;;;7389869;19;20130;-78
2022/04/22 12:11:23;;;;;;;8.55;7.35;;;17.90;96.30;;;;;;7386447;19;20145;-75
2022/04/22 12:13:50;;;;;;;9.43;6.47;;;18.00;96.40;;;;;;7385713;19;20137;-76
2022/04/22 12:16:26;;;;;;;8.35;6.65;;;18.20;96.10;;;;;;7386933;19;20195;-78
2022/04/22 12:18:56;;;;;;;7.97;6.38;;;18.30;96.00;;;;;;7390057;19;20127;-77
2022/04/22 12:21:23;;;;;;;8.07;7.05;;;18.30;96.00;;;;;;7388909;19;20134;-76
2022/04/22 12:23:51;;;;;;;7.03;5.95;;;18.40;95.70;;;;;;7391061;19;20127;-77
2022/04/22 12:26:21;;;;;;;5.90;5.28;;;18.60;95.80;;;;;;7383682;19;20146;-76
2022/04/22 12:29:05;;;;;;;7.22;5.53;;;18.80;95.40;;;;;;7386605;19;20241;-77
2022/04/22 12:31:32;;;;;;;7.88;6.45;;;18.80;95.10;;;;;;7387145;19;20597;-76
2022/04/22 12:34:10;;;;;;;7.75;6.35;;;18.80;95.40;;;;;;7386240;19;20473;-78
2022/04/22 12:36:38;;;;;;;9.02;6.28;;;19.00;94.90;;;;;;7391125;19;20198;-76
2022/04/22 12:39:06;;;;;;;7.55;6.38;;;19.00;94.80;;;;;;7385158;19;20143;-76
2022/04/22 12:41:43;;;;;;;8.60;6.70;;;19.10;94.90;;;;;;7385546;19;20134;-76
2022/04/22 12:44:13;;;;;;;7.72;6.57;;;19.00;94.50;;;;;;7387519;19;20153;-75
2022/04/22 12:52:22;;;;;;;7.15;5.88;;;18.70;94.80;;;;;;7385989;19;20622;-78
2022/04/22 12:54:49;;;;;;;7.13;5.75;;;18.70;94.80;;;;;;7385580;19;20700;-77
2022/04/22 12:57:25;;;;;;;7.63;6.07;;;18.80;94.80;;;;;;7383725;19;20138;-77
2022/04/22 12:59:54;;;;;;;8.77;6.75;;;18.90;94.70;;;;;;7384807;19;20130;-76
2022/04/22 13:02:33;;;;;;;8.73;6.72;;;19.00;94.40;;;;;;7381776;19;20123;-77
2022/04/22 13:05:07;;;;;;;6.30;5.35;;;18.90;94.30;;;;;;7384742;19;20205;-78
2022/04/22 13:07:47;;;;;;;8.05;5.80;;;19.00;94.30;;;;;;7384719;19;20445;-76
2022/04/22 13:10:14;;;;;;;9.45;5.60;;;19.00;94.10;;;;;;7388565;19;20130;-78
2022/04/22 13:12:43;;;;;;;7.15;5.65;;;19.00;94.20;;;;;;7392938;19;20158;-78
2022/04/22 13:15:18;;;;;;;7.00;5.85;;;19.00;93.80;;;;;;7387790;19;20142;-76
2022/04/22 13:17:51;;;;;;;7.50;5.55;;;18.80;93.90;;;;;;7383820;19;20562;-77
2022/04/22 13:20:18;;;;;;;7.68;5.80;;;18.80;94.20;;;;;;7385559;19;20147;-70
2022/04/22 13:22:45;;;;;;;8.55;5.43;;;18.90;94.10;;;;;;7382404;19;20517;-75
2022/04/22 13:25:12;;;;;;;8.52;6.88;;;18.90;93.80;;;;;;7386044;19;20147;-74
2022/04/22 13:27:40;;;;;;;10.45;8.30;;;19.20;93.70;;;;;;7387510;19;20131;-75
2022/04/22 13:30:07;;;;;;;11.48;6.10;;;19.30;93.60;;;;;;7382717;19;20178;-71
2022/04/22 13:32:33;;;;;;;6.90;5.30;;;19.40;93.40;;;;;;7391386;19;20606;-72
2022/04/22 13:35:00;;;;;;;6.35;4.97;;;19.30;93.00;;;;;;7390991;19;20150;-70
2022/04/22 13:37:25;;;;;;;6.07;4.88;;;19.30;93.20;;;;;;7384069;19;20170;-74
2022/04/22 13:39:51;;;;;;;5.65;5.05;;;19.20;93.30;;;;;;7386552;19;20135;-72
2022/04/22 13:42:18;;;;;;;6.35;5.05;;;19.20;93.10;;;;;;7384484;19;20166;-79
2022/04/22 13:52:58;;;;;;;23.38;17.88;;;19.30;93.90;;;;;;7396549;19;20150;-77
2022/04/22 13:55:25;;;;;;;6.75;5.32;;;19.40;93.60;;;;;;7394220;19;20163;-78
2022/04/22 13:57:51;;;;;;;6.70;4.65;;;19.60;93.10;;;;;;7393118;19;20512;-80
2022/04/22 14:00:17;;;;;;;7.72;5.70;;;19.50;93.00;;;;;;7385643;19;20135;-78
2022/04/22 14:02:43;;;;;;;6.82;5.78;;;19.50;92.70;;;;;;7388876;19;20151;-79
2022/04/22 14:05:09;;;;;;;5.78;5.05;;;19.30;92.60;;;;;;7385252;19;20657;-84